sensor_id;sensor_type;location;lat;lon;timestamp;pressure;altitude;pressure_sealevel;temperature;humidity
64908;BME280;64365;-1.756;110.040;2023-02-18T00:00:21;102132.88;;;11.18;94.45
64908;BME280;64365;-1.756;110.040;2023-02-18T00:02:49;102132.63;;;11.23;94.32
64908;BME280;64365;-1.756;110.040;2023-02-18T00:05:15;102133.66;;;11.18;94.13
64908;BME280;64365;-1.756;110.040;2023-02-18T00:07:44;102134.88;;;11.21;94.06
64908;BME280;64365;-1.756;110.040;2023-02-18T00:10:15;102138.50;;;11.16;93.96
64908;BME280;64365;-1.756;110.040;2023-02-18T00:12:42;102125.88;;;11.13;93.97
64908;BME280;64365;-1.756;110.040;2023-02-18T00:15:09;102131.22;;;11.13;94.50
64908;BME280;64365;-1.756;110.040;2023-02-18T00:17:36;102128.13;;;11.11;94.41
64908;BME280;64365;-1.756;110.040;2023-02-18T00:20:03;102126.69;;;11.14;94.38
64908;BME280;64365;-1.756;110.040;2023-02-18T00:22:29;102123.91;;;11.10;94.42
64908;BME280;64365;-1.756;110.040;2023-02-18T00:24:57;102121.56;;;11.08;95.10
64908;BME280;64365;-1.756;110.040;2023-02-18T00:27:24;102123.56;;;11.11;95.46
64908;BME280;64365;-1.756;110.040;2023-02-18T00:29:50;102116.13;;;11.17;95.49
64908;BME280;64365;-1.756;110.040;2023-02-18T00:32:17;102120.75;;;11.20;94.84
64908;BME280;64365;-1.756;110.040;2023-02-18T00:34:44;102110.13;;;11.20;95.03
64908;BME280;64365;-1.756;110.040;2023-02-18T00:37:10;102105.59;;;11.21;95.06
64908;BME280;64365;-1.756;110.040;2023-02-18T00:39:37;102108.38;;;11.24;95.72
64908;BME280;64365;-1.756;110.040;2023-02-18T00:42:05;102107.22;;;11.25;95.73
64908;BME280;64365;-1.756;110.040;2023-02-18T00:44:31;102097.47;;;11.29;95.43
64908;BME280;64365;-1.756;110.040;2023-02-18T00:46:58;102106.66;;;11.32;95.36
64908;BME280;64365;-1.756;110.040;2023-02-18T00:49:25;102103.66;;;11.34;93.87
64908;BME280;64365;-1.756;110.040;2023-02-18T00:51:51;102097.38;;;11.26;94.42
64908;BME280;64365;-1.756;110.040;2023-02-18T00:54:18;102099.81;;;11.19;94.80
64908;BME280;64365;-1.756;110.040;2023-02-18T00:56:44;102097.72;;;11.12;95.72
64908;BME280;64365;-1.756;110.040;2023-02-18T00:59:12;102098.50;;;11.12;95.22
64908;BME280;64365;-1.756;110.040;2023-02-18T01:01:39;102092.50;;;11.16;95.10
64908;BME280;64365;-1.756;110.040;2023-02-18T01:04:06;102092.50;;;11.16;95.25
64908;BME280;64365;-1.756;110.040;2023-02-18T01:06:32;102089.50;;;11.17;95.63
64908;BME280;64365;-1.756;110.040;2023-02-18T01:08:59;102097.94;;;11.19;95.16
64908;BME280;64365;-1.756;110.040;2023-02-18T01:11:26;102090.31;;;11.18;95.11
64908;BME280;64365;-1.756;110.040;2023-02-18T01:13:52;102101.59;;;11.15;95.66
64908;BME280;64365;-1.756;110.040;2023-02-18T01:16:20;102083.31;;;11.13;95.87
64908;BME280;64365;-1.756;110.040;2023-02-18T01:18:47;102085.28;;;11.16;95.96
64908;BME280;64365;-1.756;110.040;2023-02-18T01:21:15;102099.81;;;11.19;95.81
64908;BME280;64365;-1.756;110.040;2023-02-18T01:23:41;102089.50;;;11.17;96.07
64908;BME280;64365;-1.756;110.040;2023-02-18T01:26:10;102078.66;;;11.10;96.63
64908;BME280;64365;-1.756;110.040;2023-02-18T01:28:36;102074.91;;;11.11;96.27
64908;BME280;64365;-1.756;110.040;2023-02-18T01:31:05;102072.47;;;11.06;97.13
64908;BME280;64365;-1.756;110.040;2023-02-18T01:33:34;102081.75;;;11.12;97.31
64908;BME280;64365;-1.756;110.040;2023-02-18T01:36:00;102075.09;;;11.18;96.71
64908;BME280;64365;-1.756;110.040;2023-02-18T01:38:27;102069.31;;;11.16;96.66
64908;BME280;64365;-1.756;110.040;2023-02-18T01:40:53;102068.91;;;11.14;96.62
64908;BME280;64365;-1.756;110.040;2023-02-18T01:43:20;102066.66;;;11.16;96.71
64908;BME280;64365;-1.756;110.040;2023-02-18T01:46:06;102063.13;;;11.12;96.50
64908;BME280;64365;-1.756;110.040;2023-02-18T01:48:37;102062.69;;;11.10;96.53
64908;BME280;64365;-1.756;110.040;2023-02-18T01:51:09;102056.84;;;11.04;96.86
64908;BME280;64365;-1.756;110.040;2023-02-18T01:53:41;102057.41;;;10.98;96.64
64908;BME280;64365;-1.756;110.040;2023-02-18T01:56:13;102054.50;;;10.90;97.20
64908;BME280;64365;-1.756;110.040;2023-02-18T01:58:42;102056.41;;;10.90;96.79
64908;BME280;64365;-1.756;110.040;2023-02-18T02:01:09;102046.00;;;10.85;97.96
64908;BME280;64365;-1.756;110.040;2023-02-18T02:03:37;102025.97;;;10.75;98.29
64908;BME280;64365;-1.756;110.040;2023-02-18T02:06:08;102031.38;;;10.78;97.73
64908;BME280;64365;-1.756;110.040;2023-02-18T02:08:39;102034.34;;;10.77;97.99
64908;BME280;64365;-1.756;110.040;2023-02-18T02:11:16;102019.63;;;10.67;98.28
64908;BME280;64365;-1.756;110.040;2023-02-18T02:13:58;102020.31;;;10.64;98.80
64908;BME280;64365;-1.756;110.040;2023-02-18T02:16:31;102012.47;;;10.55;99.00
64908;BME280;64365;-1.756;110.040;2023-02-18T02:19:18;101998.50;;;10.46;100.00
64908;BME280;64365;-1.756;110.040;2023-02-18T02:22:16;101988.53;;;10.43;100.00
64908;BME280;64365;-1.756;110.040;2023-02-18T02:25:09;101980.56;;;10.43;100.00
64908;BME280;64365;-1.756;110.040;2023-02-18T02:28:07;101976.78;;;10.44;100.00
64908;BME280;64365;-1.756;110.040;2023-02-18T02:30:53;101971.34;;;10.40;100.00
64908;BME280;64365;-1.756;110.040;2023-02-18T02:33:44;101956.94;;;10.54;100.00
64908;BME280;64365;-1.756;110.040;2023-02-18T02:36:20;101946.66;;;10.40;100.00
64908;BME280;64365;-1.756;110.040;2023-02-18T02:38:54;101935.81;;;10.33;100.00
64908;BME280;64365;-1.756;110.040;2023-02-18T02:41:32;101929.09;;;10.35;100.00
64908;BME280;64365;-1.756;110.040;2023-02-18T02:44:12;101923.53;;;10.40;100.00
64908;BME280;64365;-1.756;110.040;2023-02-18T02:46:45;101914.78;;;10.40;100.00
64908;BME280;64365;-1.756;110.040;2023-02-18T02:49:23;101920.56;;;10.42;100.00
64908;BME280;64365;-1.756;110.040;2023-02-18T02:51:58;101914.09;;;10.43;100.00
64908;BME280;64365;-1.756;110.040;2023-02-18T02:54:27;101909.91;;;10.42;100.00
64908;BME280;64365;-1.756;110.040;2023-02-18T02:57:05;101917.91;;;10.42;100.00
64908;BME280;64365;-1.756;110.040;2023-02-18T02:59:35;101914.03;;;10.39;100.00
64908;BME280;64365;-1.756;110.040;2023-02-18T03:02:17;101899.50;;;10.37;100.00
64908;BME280;64365;-1.756;110.040;2023-02-18T03:04:59;101904.91;;;10.40;100.00
64908;BME280;64365;-1.756;110.040;2023-02-18T03:07:53;101896.84;;;10.37;100.00
64908;BME280;64365;-1.756;110.040;2023-02-18T03:10:38;101898.72;;;10.36;100.00
64908;BME280;64365;-1.756;110.040;2023-02-18T03:13:15;101904.16;;;10.40;100.00
64908;BME280;64365;-1.756;110.040;2023-02-18T03:15:49;101891.63;;;10.40;100.00
64908;BME280;64365;-1.756;110.040;2023-02-18T03:18:25;101892.09;;;10.42;100.00
64908;BME280;64365;-1.756;110.040;2023-02-18T03:20:57;101888.41;;;10.47;100.00
64908;BME280;64365;-1.756;110.040;2023-02-18T03:23:32;101870.38;;;10.53;100.00
64908;BME280;64365;-1.756;110.040;2023-02-18T03:26:01;101870.38;;;10.53;100.00
64908;BME280;64365;-1.756;110.040;2023-02-18T03:28:30;101856.06;;;10.57;100.00
64908;BME280;64365;-1.756;110.040;2023-02-18T03:31:00;101840.69;;;10.51;100.00
64908;BME280;64365;-1.756;110.040;2023-02-18T03:33:34;101831.84;;;10.47;100.00
64908;BME280;64365;-1.756;110.040;2023-02-18T03:36:03;101832.03;;;10.54;100.00
64908;BME280;64365;-1.756;110.040;2023-02-18T03:38:35;101831.09;;;10.62;100.00
64908;BME280;64365;-1.756;110.040;2023-02-18T03:41:05;101822.38;;;10.61;100.00
64908;BME280;64365;-1.756;110.040;2023-02-18T03:43:31;101823.47;;;10.60;100.00
64908;BME280;64365;-1.756;110.040;2023-02-18T03:45:58;101825.91;;;10.66;100.00
64908;BME280;64365;-1.756;110.040;2023-02-18T03:48:26;101817.69;;;10.71;100.00
64908;BME280;64365;-1.756;110.040;2023-02-18T03:50:52;101824.97;;;10.74;100.00
64908;BME280;64365;-1.756;110.040;2023-02-18T03:53:19;101815.13;;;10.74;100.00
64908;BME280;64365;-1.756;110.040;2023-02-18T03:55:47;101813.47;;;10.70;100.00
64908;BME280;64365;-1.756;110.040;2023-02-18T03:58:13;101807.28;;;10.66;100.00
64908;BME280;64365;-1.756;110.040;2023-02-18T04:00:40;101805.31;;;10.63;100.00
64908;BME280;64365;-1.756;110.040;2023-02-18T04:03:06;101796.22;;;10.64;100.00
64908;BME280;64365;-1.756;110.040;2023-02-18T04:05:33;101809.94;;;10.66;100.00
64908;BME280;64365;-1.756;110.040;2023-02-18T04:08:00;101800.88;;;10.67;100.00
64908;BME280;64365;-1.756;110.040;2023-02-18T04:10:27;101789.78;;;10.65;100.00
64908;BME280;64365;-1.756;110.040;2023-02-18T04:12:55;101785.25;;;10.65;100.00
64908;BME280;64365;-1.756;110.040;2023-02-18T04:15:21;101791.44;;;10.69;100.00
64908;BME280;64365;-1.756;110.040;2023-02-18T04:17:48;101773.59;;;10.70;100.00
64908;BME280;64365;-1.756;110.040;2023-02-18T04:20:15;101775.72;;;10.64;100.00
64908;BME280;64365;-1.756;110.040;2023-02-18T04:22:42;101776.94;;;10.67;100.00
64908;BME280;64365;-1.756;110.040;2023-02-18T04:25:08;101771.44;;;10.59;100.00
64908;BME280;64365;-1.756;110.040;2023-02-18T04:27:35;101779.16;;;10.65;100.00
64908;BME280;64365;-1.756;110.040;2023-02-18T04:30:03;101777.19;;;10.61;100.00
64908;BME280;64365;-1.756;110.040;2023-02-18T04:32:30;101775.84;;;10.68;100.00
64908;BME280;64365;-1.756;110.040;2023-02-18T04:34:57;101779.25;;;10.68;100.00
64908;BME280;64365;-1.756;110.040;2023-02-18T04:37:23;101764.34;;;10.64;100.00
64908;BME280;64365;-1.756;110.040;2023-02-18T04:39:50;101752.84;;;10.59;100.00
64908;BME280;64365;-1.756;110.040;2023-02-18T04:42:17;101749.03;;;10.60;100.00
64908;BME280;64365;-1.756;110.040;2023-02-18T04:44:43;101753.69;;;10.64;100.00
64908;BME280;64365;-1.756;110.040;2023-02-18T04:47:13;101743.81;;;10.64;100.00
64908;BME280;64365;-1.756;110.040;2023-02-18T04:49:39;101740.41;;;10.64;100.00
64908;BME280;64365;-1.756;110.040;2023-02-18T04:52:06;101737.81;;;10.67;100.00
64908;BME280;64365;-1.756;110.040;2023-02-18T04:54:33;101730.72;;;10.71;100.00
64908;BME280;64365;-1.756;110.040;2023-02-18T04:56:59;101730.88;;;10.63;100.00
64908;BME280;64365;-1.756;110.040;2023-02-18T04:59:26;101737.94;;;10.71;100.00
64908;BME280;64365;-1.756;110.040;2023-02-18T05:01:52;101741.59;;;10.66;100.00
64908;BME280;64365;-1.756;110.040;2023-02-18T05:04:20;101738.16;;;10.66;100.00
64908;BME280;64365;-1.756;110.040;2023-02-18T05:06:47;101737.94;;;10.71;100.00
64908;BME280;64365;-1.756;110.040;2023-02-18T05:09:14;101726.84;;;10.69;100.00
64908;BME280;64365;-1.756;110.040;2023-02-18T05:11:41;101734.56;;;10.74;100.00
64908;BME280;64365;-1.756;110.040;2023-02-18T05:14:07;101722.84;;;10.75;100.00
64908;BME280;64365;-1.756;110.040;2023-02-18T05:16:34;101725.66;;;10.82;100.00
64908;BME280;64365;-1.756;110.040;2023-02-18T05:19:01;101728.31;;;10.82;100.00
64908;BME280;64365;-1.756;110.040;2023-02-18T05:21:29;101719.22;;;10.83;100.00
64908;BME280;64365;-1.756;110.040;2023-02-18T05:23:56;101722.34;;;10.85;100.00
64908;BME280;64365;-1.756;110.040;2023-02-18T05:26:22;101720.84;;;10.88;100.00
64908;BME280;64365;-1.756;110.040;2023-02-18T05:28:49;101714.09;;;10.90;100.00
64908;BME280;64365;-1.756;110.040;2023-02-18T05:31:16;101698.41;;;10.85;100.00
64908;BME280;64365;-1.756;110.040;2023-02-18T05:33:42;101706.66;;;10.96;100.00
64908;BME280;64365;-1.756;110.040;2023-02-18T05:36:09;101698.66;;;10.96;100.00
64908;BME280;64365;-1.756;110.040;2023-02-18T05:38:37;101690.69;;;10.96;100.00
64908;BME280;64365;-1.756;110.040;2023-02-18T05:41:04;101694.88;;;10.97;100.00
64908;BME280;64365;-1.756;110.040;2023-02-18T05:43:30;101687.69;;;10.98;100.00
64908;BME280;64365;-1.756;110.040;2023-02-18T05:46:17;101696.78;;;10.97;100.00
64908;BME280;64365;-1.756;110.040;2023-02-18T05:48:44;101697.47;;;10.93;100.00
64908;BME280;64365;-1.756;110.040;2023-02-18T05:51:10;101694.19;;;11.00;100.00
64908;BME280;64365;-1.756;110.040;2023-02-18T05:53:38;101679.44;;;11.03;100.00
64908;BME280;64365;-1.756;110.040;2023-02-18T05:56:05;101671.72;;;10.98;100.00
64908;BME280;64365;-1.756;110.040;2023-02-18T05:58:32;101678.66;;;11.02;100.00
64908;BME280;64365;-1.756;110.040;2023-02-18T06:00:59;101686.28;;;11.04;100.00
64908;BME280;64365;-1.756;110.040;2023-02-18T06:03:26;101683.63;;;11.04;100.00
64908;BME280;64365;-1.756;110.040;2023-02-18T06:05:52;101681.81;;;11.08;100.00
64908;BME280;64365;-1.756;110.040;2023-02-18T06:08:19;101686.03;;;11.09;100.00
64908;BME280;64365;-1.756;110.040;2023-02-18T06:10:47;101683.72;;;11.07;100.00
64908;BME280;64365;-1.756;110.040;2023-02-18T06:13:14;101688.28;;;11.07;100.00
64908;BME280;64365;-1.756;110.040;2023-02-18T06:15:40;101690.25;;;11.10;100.00
64908;BME280;64365;-1.756;110.040;2023-02-18T06:18:07;101694.16;;;11.16;100.00
64908;BME280;64365;-1.756;110.040;2023-02-18T06:20:33;101688.78;;;11.12;100.00
64908;BME280;64365;-1.756;110.040;2023-02-18T06:23:00;101677.78;;;11.14;100.00
64908;BME280;64365;-1.756;110.040;2023-02-18T06:25:26;101684.66;;;11.15;100.00
64908;BME280;64365;-1.756;110.040;2023-02-18T06:27:54;101680.09;;;11.16;100.00
64908;BME280;64365;-1.756;110.040;2023-02-18T06:30:21;101680.53;;;11.18;100.00
64908;BME280;64365;-1.756;110.040;2023-02-18T06:32:47;101685.94;;;11.21;100.00
64908;BME280;64365;-1.756;110.040;2023-02-18T06:35:14;101696.56;;;11.21;100.00
64908;BME280;64365;-1.756;110.040;2023-02-18T06:37:41;101704.28;;;11.26;100.00
64908;BME280;64365;-1.756;110.040;2023-02-18T06:40:09;101687.63;;;11.29;100.00
64908;BME280;64365;-1.756;110.040;2023-02-18T06:42:35;101695.47;;;11.22;100.00
64908;BME280;64365;-1.756;110.040;2023-02-18T06:45:04;101700.03;;;11.22;100.00
64908;BME280;64365;-1.756;110.040;2023-02-18T06:47:31;101694.75;;;11.25;100.00
64908;BME280;64365;-1.756;110.040;2023-02-18T06:49:57;101701.63;;;11.26;100.00
64908;BME280;64365;-1.756;110.040;2023-02-18T06:52:24;101679.06;;;11.20;100.00
64908;BME280;64365;-1.756;110.040;2023-02-18T06:54:50;101689.03;;;11.23;100.00
64908;BME280;64365;-1.756;110.040;2023-02-18T06:57:17;101678.38;;;11.23;100.00
64908;BME280;64365;-1.756;110.040;2023-02-18T06:59:44;101687.84;;;11.21;100.00
64908;BME280;64365;-1.756;110.040;2023-02-18T07:02:13;101678.28;;;11.20;100.00
64908;BME280;64365;-1.756;110.040;2023-02-18T07:04:40;101674.88;;;11.19;100.00
64908;BME280;64365;-1.756;110.040;2023-02-18T07:07:07;101675.28;;;11.21;100.00
64908;BME280;64365;-1.756;110.040;2023-02-18T07:09:33;101685.00;;;11.14;100.00
64908;BME280;64365;-1.756;110.040;2023-02-18T07:12:00;101669.06;;;11.14;100.00
64908;BME280;64365;-1.756;110.040;2023-02-18T07:14:26;101670.50;;;11.11;100.00
64908;BME280;64365;-1.756;110.040;2023-02-18T07:16:53;101661.38;;;11.12;100.00
64908;BME280;64365;-1.756;110.040;2023-02-18T07:19:21;101682.69;;;11.12;100.00
64908;BME280;64365;-1.756;110.040;2023-02-18T07:21:48;101665.09;;;11.07;100.00
64908;BME280;64365;-1.756;110.040;2023-02-18T07:24:14;101659.16;;;11.14;100.00
64908;BME280;64365;-1.756;110.040;2023-02-18T07:26:41;101644.16;;;11.06;100.00
64908;BME280;64365;-1.756;110.040;2023-02-18T07:29:07;101655.41;;;11.15;100.00
64908;BME280;64365;-1.756;110.040;2023-02-18T07:31:34;101657.97;;;11.11;100.00
64908;BME280;64365;-1.756;110.040;2023-02-18T07:34:02;101652.66;;;11.11;100.00
64908;BME280;64365;-1.756;110.040;2023-02-18T07:36:30;101665.19;;;11.11;100.00
64908;BME280;64365;-1.756;110.040;2023-02-18T07:38:57;101655.66;;;11.10;100.00
64908;BME280;64365;-1.756;110.040;2023-02-18T07:41:24;101652.31;;;11.13;99.58
64908;BME280;64365;-1.756;110.040;2023-02-18T07:43:50;101666.31;;;11.10;98.91
64908;BME280;64365;-1.756;110.040;2023-02-18T07:46:17;101668.16;;;11.09;98.94
64908;BME280;64365;-1.756;110.040;2023-02-18T07:48:44;101657.47;;;11.06;99.33
64908;BME280;64365;-1.756;110.040;2023-02-18T07:51:11;101678.06;;;11.09;99.33
64908;BME280;64365;-1.756;110.040;2023-02-18T07:53:40;101673.84;;;11.08;98.72
64908;BME280;64365;-1.756;110.040;2023-02-18T07:56:06;101685.63;;;11.07;98.12
64908;BME280;64365;-1.756;110.040;2023-02-18T07:58:34;101682.53;;;11.05;98.02
64908;BME280;64365;-1.756;110.040;2023-02-18T08:01:04;101680.13;;;11.00;97.89
64908;BME280;64365;-1.756;110.040;2023-02-18T08:03:31;101685.44;;;11.00;97.76
64908;BME280;64365;-1.756;110.040;2023-02-18T08:05:59;101691.44;;;10.97;97.23
64908;BME280;64365;-1.756;110.040;2023-02-18T08:08:28;101689.38;;;10.90;97.73
64908;BME280;64365;-1.756;110.040;2023-02-18T08:10:57;101692.50;;;10.92;97.67
64908;BME280;64365;-1.756;110.040;2023-02-18T08:13:26;101686.72;;;10.90;97.11
64908;BME280;64365;-1.756;110.040;2023-02-18T08:15:53;101690.50;;;10.89;97.29
64908;BME280;64365;-1.756;110.040;2023-02-18T08:18:22;101705.78;;;10.92;97.13
64908;BME280;64365;-1.756;110.040;2023-02-18T08:20:49;101700.03;;;10.90;97.20
64908;BME280;64365;-1.756;110.040;2023-02-18T08:23:18;101707.25;;;10.89;97.09
64908;BME280;64365;-1.756;110.040;2023-02-18T08:25:45;101709.47;;;10.87;96.55
64908;BME280;64365;-1.756;110.040;2023-02-18T08:28:13;101705.84;;;10.79;95.96
64908;BME280;64365;-1.756;110.040;2023-02-18T08:30:43;101702.31;;;10.75;97.22
64908;BME280;64365;-1.756;110.040;2023-02-18T08:33:10;101712.97;;;10.75;97.30
64908;BME280;64365;-1.756;110.040;2023-02-18T08:35:36;101716.75;;;10.74;97.22
64908;BME280;64365;-1.756;110.040;2023-02-18T08:38:03;101696.59;;;10.73;96.28
64908;BME280;64365;-1.756;110.040;2023-02-18T08:40:29;101709.09;;;10.73;96.21
64908;BME280;64365;-1.756;110.040;2023-02-18T08:42:56;101695.72;;;10.69;96.22
64908;BME280;64365;-1.756;110.040;2023-02-18T08:45:24;101691.06;;;10.66;95.65
64908;BME280;64365;-1.756;110.040;2023-02-18T08:47:51;101703.59;;;10.66;95.53
64908;BME280;64365;-1.756;110.040;2023-02-18T08:50:18;101694.44;;;10.63;95.14
64908;BME280;64365;-1.756;110.040;2023-02-18T08:52:45;101705.41;;;10.61;94.75
64908;BME280;64365;-1.756;110.040;2023-02-18T08:55:12;101707.66;;;10.59;95.36
64908;BME280;64365;-1.756;110.040;2023-02-18T08:57:38;101710.31;;;10.59;95.26
64908;BME280;64365;-1.756;110.040;2023-02-18T09:00:06;101720.31;;;10.66;94.89
64908;BME280;64365;-1.756;110.040;2023-02-18T09:02:34;101705.56;;;10.69;94.04
64908;BME280;64365;-1.756;110.040;2023-02-18T09:05:01;101717.75;;;10.70;94.46
64908;BME280;64365;-1.756;110.040;2023-02-18T09:07:28;101713.31;;;10.74;94.33
64908;BME280;64365;-1.756;110.040;2023-02-18T09:09:54;101705.53;;;10.81;93.85
64908;BME280;64365;-1.756;110.040;2023-02-18T09:12:21;101717.78;;;10.86;93.59
64908;BME280;64365;-1.756;110.040;2023-02-18T09:14:47;101711.59;;;10.82;92.73
64908;BME280;64365;-1.756;110.040;2023-02-18T09:17:14;101715.47;;;10.84;92.34
64908;BME280;64365;-1.756;110.040;2023-02-18T09:19:42;101720.44;;;10.86;92.45
64908;BME280;64365;-1.756;110.040;2023-02-18T09:22:09;101716.75;;;10.90;92.49
64908;BME280;64365;-1.756;110.040;2023-02-18T09:24:36;101721.41;;;10.93;92.49
64908;BME280;64365;-1.756;110.040;2023-02-18T09:27:03;101711.88;;;10.92;92.02
64908;BME280;64365;-1.756;110.040;2023-02-18T09:29:31;101725.34;;;11.00;92.07
64908;BME280;64365;-1.756;110.040;2023-02-18T09:31:59;101748.59;;;11.03;91.54
64908;BME280;64365;-1.756;110.040;2023-02-18T09:34:25;101738.03;;;11.06;92.24
64908;BME280;64365;-1.756;110.040;2023-02-18T09:36:53;101749.28;;;11.16;91.02
64908;BME280;64365;-1.756;110.040;2023-02-18T09:39:20;101733.66;;;11.14;90.76
64908;BME280;64365;-1.756;110.040;2023-02-18T09:41:47;101729.97;;;11.19;90.22
64908;BME280;64365;-1.756;110.040;2023-02-18T09:44:20;101742.75;;;11.13;89.80
64908;BME280;64365;-1.756;110.040;2023-02-18T09:46:51;101737.59;;;11.20;89.54
64908;BME280;64365;-1.756;110.040;2023-02-18T09:49:22;101735.13;;;11.11;89.92
64908;BME280;64365;-1.756;110.040;2023-02-18T09:51:51;101742.06;;;11.16;89.76
64908;BME280;64365;-1.756;110.040;2023-02-18T09:54:20;101740.69;;;11.22;89.17
64908;BME280;64365;-1.756;110.040;2023-02-18T09:56:48;101753.56;;;11.20;89.02
64908;BME280;64365;-1.756;110.040;2023-02-18T09:59:17;101746.38;;;11.21;88.50
64908;BME280;64365;-1.756;110.040;2023-02-18T10:01:46;101752.91;;;11.23;88.38
64908;BME280;64365;-1.756;110.040;2023-02-18T10:04:16;101752.78;;;11.20;89.59
64908;BME280;64365;-1.756;110.040;2023-02-18T10:06:45;101762.84;;;11.26;89.66
64908;BME280;64365;-1.756;110.040;2023-02-18T10:09:17;101761.47;;;11.33;89.02
64908;BME280;64365;-1.756;110.040;2023-02-18T10:11:48;101762.41;;;11.40;88.63
64908;BME280;64365;-1.756;110.040;2023-02-18T10:14:16;101760.94;;;11.43;88.82
64908;BME280;64365;-1.756;110.040;2023-02-18T10:16:45;101763.09;;;11.53;87.65
64908;BME280;64365;-1.756;110.040;2023-02-18T10:19:20;101747.81;;;11.50;88.35
64908;BME280;64365;-1.756;110.040;2023-02-18T10:21:47;101762.81;;;11.58;88.40
64908;BME280;64365;-1.756;110.040;2023-02-18T10:24:24;101755.75;;;11.66;87.90
64908;BME280;64365;-1.756;110.040;2023-02-18T10:26:54;101769.84;;;11.67;87.74
64908;BME280;64365;-1.756;110.040;2023-02-18T10:29:23;101787.53;;;11.75;87.13
64908;BME280;64365;-1.756;110.040;2023-02-18T10:31:54;101766.97;;;11.75;87.13
64908;BME280;64365;-1.756;110.040;2023-02-18T10:34:29;101764.06;;;11.80;86.45
64908;BME280;64365;-1.756;110.040;2023-02-18T10:37:07;101775.66;;;11.88;85.85
64908;BME280;64365;-1.756;110.040;2023-02-18T10:39:47;101784.47;;;11.92;86.44
64908;BME280;64365;-1.756;110.040;2023-02-18T10:42:29;101800.38;;;12.05;85.93
64908;BME280;64365;-1.756;110.040;2023-02-18T10:45:08;101795.63;;;12.14;85.52
64908;BME280;64365;-1.756;110.040;2023-02-18T10:47:47;101791.97;;;12.22;85.76
64908;BME280;64365;-1.756;110.040;2023-02-18T10:50:24;101796.03;;;12.16;84.69
64908;BME280;64365;-1.756;110.040;2023-02-18T10:52:55;101788.88;;;12.20;84.90
64908;BME280;64365;-1.756;110.040;2023-02-18T10:55:35;101772.97;;;12.24;85.13
64908;BME280;64365;-1.756;110.040;2023-02-18T10:58:03;101781.88;;;12.32;85.07
64908;BME280;64365;-1.756;110.040;2023-02-18T11:00:34;101782.84;;;12.43;84.98
64908;BME280;64365;-1.756;110.040;2023-02-18T11:03:13;101776.13;;;12.49;84.21
64908;BME280;64365;-1.756;110.040;2023-02-18T11:05:41;101782.97;;;12.50;84.34
64908;BME280;64365;-1.756;110.040;2023-02-18T11:08:12;101782.97;;;12.50;84.23
64908;BME280;64365;-1.756;110.040;2023-02-18T11:10:42;101779.97;;;12.52;83.67
64908;BME280;64365;-1.756;110.040;2023-02-18T11:13:12;101763.84;;;12.44;84.25
64908;BME280;64365;-1.756;110.040;2023-02-18T11:15:53;101771.19;;;12.51;84.18
64908;BME280;64365;-1.756;110.040;2023-02-18T11:18:37;101779.69;;;12.57;83.32
64908;BME280;64365;-1.756;110.040;2023-02-18T11:21:05;101777.94;;;12.45;83.68
64908;BME280;64365;-1.756;110.040;2023-02-18T11:23:45;101777.53;;;12.43;84.31
64908;BME280;64365;-1.756;110.040;2023-02-18T11:26:13;101792.75;;;12.42;84.37
64908;BME280;64365;-1.756;110.040;2023-02-18T11:28:45;101788.41;;;12.34;85.53
64908;BME280;64365;-1.756;110.040;2023-02-18T11:31:19;101792.09;;;12.29;86.41
64908;BME280;64365;-1.756;110.040;2023-02-18T11:33:49;101795.88;;;12.28;87.07
64908;BME280;64365;-1.756;110.040;2023-02-18T11:36:21;101774.16;;;12.26;86.48
64908;BME280;64365;-1.756;110.040;2023-02-18T11:38:50;101781.88;;;12.32;86.25
64908;BME280;64365;-1.756;110.040;2023-02-18T11:41:20;101776.56;;;12.32;86.30
64908;BME280;64365;-1.756;110.040;2023-02-18T11:43:50;101777.22;;;12.28;86.44
64908;BME280;64365;-1.756;110.040;2023-02-18T11:46:19;101779.63;;;12.34;86.50
64908;BME280;64365;-1.756;110.040;2023-02-18T11:48:47;101768.84;;;12.26;86.85
64908;BME280;64365;-1.756;110.040;2023-02-18T11:51:19;101781.25;;;12.38;86.25
64908;BME280;64365;-1.756;110.040;2023-02-18T11:53:57;101774.50;;;12.44;86.27
64908;BME280;64365;-1.756;110.040;2023-02-18T11:56:26;101781.47;;;12.49;85.96
64908;BME280;64365;-1.756;110.040;2023-02-18T11:58:55;101780.75;;;12.52;85.39
64908;BME280;64365;-1.756;110.040;2023-02-18T12:01:31;101784.69;;;12.58;84.78
64908;BME280;64365;-1.756;110.040;2023-02-18T12:04:06;101781.22;;;12.58;84.41
64908;BME280;64365;-1.756;110.040;2023-02-18T12:06:38;101760.47;;;12.48;84.71
64908;BME280;64365;-1.756;110.040;2023-02-18T12:09:18;101778.19;;;12.59;84.13
64908;BME280;64365;-1.756;110.040;2023-02-18T12:11:48;101787.34;;;12.58;84.19
64908;BME280;64365;-1.756;110.040;2023-02-18T12:14:19;101779.03;;;12.63;84.59
64908;BME280;64365;-1.756;110.040;2023-02-18T12:17:00;101781.03;;;12.67;84.36
64908;BME280;64365;-1.756;110.040;2023-02-18T12:22:40;101774.25;;;12.73;84.31
64908;BME280;64365;-1.756;110.040;2023-02-18T12:25:23;101769.81;;;12.80;84.13
64908;BME280;64365;-1.756;110.040;2023-02-18T12:27:57;101778.31;;;12.86;84.22
64908;BME280;64365;-1.756;110.040;2023-02-18T12:30:45;101774.59;;;12.91;83.38
64908;BME280;64365;-1.756;110.040;2023-02-18T12:33:20;101768.91;;;12.92;83.64
64908;BME280;64365;-1.756;110.040;2023-02-18T12:36:03;101778.84;;;12.95;83.11
64908;BME280;64365;-1.756;110.040;2023-02-18T12:38:49;101773.50;;;12.95;83.42
64908;BME280;64365;-1.756;110.040;2023-02-18T12:41:28;101783.19;;;13.04;82.68